createdAt,value
2022-10-13T00:00:15.102Z,43.50
2022-10-13T00:02:42.203Z,43.71
2022-10-13T00:05:09.563Z,43.58
2022-10-13T00:07:36.802Z,43.77
2022-10-13T00:10:04.240Z,43.58
2022-10-13T00:12:35.877Z,44.11
2022-10-13T00:15:05.110Z,43.79
2022-10-13T00:17:32.208Z,43.88
2022-10-13T00:19:59.418Z,43.65
2022-10-13T00:22:27.810Z,43.82
2022-10-13T00:24:54.905Z,43.91
2022-10-13T00:27:22.042Z,43.84
2022-10-13T00:29:50.544Z,43.65
2022-10-13T00:32:18.433Z,43.79
2022-10-13T00:34:45.794Z,43.81
2022-10-13T00:37:13.054Z,43.66
2022-10-13T00:39:40.261Z,44.03
2022-10-13T00:42:10.380Z,43.93
2022-10-13T00:45:19.752Z,43.83
2022-10-13T00:47:50.136Z,43.96
2022-10-13T00:50:21.008Z,43.74
2022-10-13T00:52:49.408Z,43.79
2022-10-13T00:55:20.123Z,43.74
2022-10-13T00:57:50.521Z,43.80
2022-10-13T01:00:19.012Z,44.06
2022-10-13T01:03:06.770Z,43.78
2022-10-13T01:05:34.493Z,43.74
2022-10-13T01:08:02.331Z,43.66
2022-10-13T01:10:40.178Z,44.05
2022-10-13T01:13:17.064Z,43.77
2022-10-13T01:15:54.326Z,43.90
2022-10-13T01:18:26.654Z,44.01
2022-10-13T01:21:15.872Z,43.99
2022-10-13T01:24:20.692Z,43.99
2022-10-13T01:27:04.695Z,43.66
2022-10-13T01:30:02.823Z,43.95
2022-10-13T01:32:35.324Z,43.72
2022-10-13T01:35:08.398Z,43.85
2022-10-13T01:37:45.726Z,43.85
2022-10-13T01:40:19.475Z,43.88
2022-10-13T01:42:54.420Z,43.81
2022-10-13T01:45:26.535Z,44.08
2022-10-13T01:47:54.061Z,44.10
2022-10-13T01:50:21.954Z,43.87
2022-10-13T01:52:50.563Z,43.83
2022-10-13T01:55:17.676Z,43.99
2022-10-13T01:57:45.197Z,43.95
2022-10-13T02:00:15.162Z,44.00
2022-10-13T02:02:53.801Z,43.77
2022-10-13T02:05:27.475Z,43.96
2022-10-13T02:08:01.201Z,43.80
2022-10-13T02:10:34.849Z,43.85
2022-10-13T02:13:04.412Z,43.89
2022-10-13T02:15:37.218Z,43.79
2022-10-13T02:18:07.920Z,43.87
2022-10-13T02:20:36.602Z,43.90
2022-10-13T02:23:09.134Z,43.87
2022-10-13T02:25:36.744Z,44.05
2022-10-13T02:28:04.886Z,43.89
2022-10-13T02:30:33.480Z,44.03
2022-10-13T02:33:00.738Z,43.89
2022-10-13T02:35:29.325Z,43.93
2022-10-13T02:37:56.650Z,43.89
2022-10-13T02:40:23.911Z,43.94
2022-10-13T02:42:51.005Z,43.88
2022-10-13T02:45:18.309Z,43.68
2022-10-13T02:47:45.423Z,43.91
2022-10-13T02:50:12.598Z,43.70
2022-10-13T02:52:41.106Z,44.03
2022-10-13T02:55:08.949Z,43.93
2022-10-13T02:57:36.305Z,43.85
2022-10-13T03:00:05.215Z,43.89
2022-10-13T03:02:32.392Z,43.67
2022-10-13T03:04:59.497Z,43.67
2022-10-13T03:07:26.712Z,43.86
2022-10-13T03:09:55.129Z,43.91
2022-10-13T03:12:22.633Z,43.85
2022-10-13T03:14:50.141Z,43.78
2022-10-13T03:17:17.534Z,43.83
2022-10-13T03:19:44.656Z,43.80
2022-10-13T03:22:11.811Z,43.71
2022-10-13T03:24:38.908Z,44.04
2022-10-13T03:27:07.431Z,43.95
2022-10-13T03:29:34.553Z,43.59
2022-10-13T03:32:01.752Z,43.89
2022-10-13T03:34:29.309Z,43.72
2022-10-13T03:36:56.468Z,43.86
2022-10-13T03:39:23.580Z,43.70
2022-10-13T03:41:50.686Z,43.87
2022-10-13T03:44:19.176Z,43.66
2022-10-13T03:46:46.271Z,43.87
2022-10-13T03:49:13.379Z,44.34
2022-10-13T03:51:40.595Z,46.33
2022-10-13T03:54:09.500Z,46.12
2022-10-13T03:56:36.616Z,45.05
2022-10-13T03:59:03.826Z,44.97
2022-10-13T04:01:33.622Z,45.18
2022-10-13T04:04:01.835Z,45.10
2022-10-13T04:06:29.874Z,44.88
2022-10-13T04:08:57.672Z,45.04
2022-10-13T04:11:25.029Z,44.96
2022-10-13T04:13:52.352Z,44.73
2022-10-13T04:16:21.324Z,44.84
2022-10-13T04:18:53.549Z,44.89
2022-10-13T04:21:21.500Z,44.76
2022-10-13T04:23:48.779Z,44.61
2022-10-13T04:26:17.451Z,44.70
2022-10-13T04:28:44.933Z,44.43
2022-10-13T04:31:12.172Z,44.81
2022-10-13T04:33:39.424Z,44.66
2022-10-13T04:36:10.969Z,44.74
2022-10-13T04:38:38.309Z,44.39
2022-10-13T04:41:06.713Z,44.50
2022-10-13T04:43:34.348Z,44.50
2022-10-13T04:46:01.593Z,44.60
2022-10-13T04:48:28.748Z,44.65
2022-10-13T04:50:59.955Z,44.44
2022-10-13T04:53:28.727Z,44.40
2022-10-13T04:55:56.022Z,44.59
2022-10-13T04:58:23.328Z,44.38
2022-10-13T05:00:50.984Z,44.45
2022-10-13T05:03:18.109Z,44.65
2022-10-13T05:05:45.499Z,44.49
2022-10-13T05:08:12.646Z,44.57
2022-10-13T05:10:41.204Z,44.54
2022-10-13T05:13:08.398Z,44.36
2022-10-13T05:15:38.925Z,44.52
2022-10-13T05:18:06.058Z,44.79
2022-10-13T05:20:33.155Z,44.61
2022-10-13T05:23:00.398Z,44.32
2022-10-13T05:25:31.593Z,44.46
2022-10-13T05:28:04.354Z,44.59
2022-10-13T05:30:31.589Z,44.44
2022-10-13T05:32:58.678Z,44.58
2022-10-13T05:35:26.103Z,44.84
2022-10-13T05:37:53.318Z,44.73
2022-10-13T05:40:20.427Z,44.39
2022-10-13T05:42:48.163Z,44.39
2022-10-13T05:45:18.191Z,44.56
2022-10-13T05:47:45.325Z,44.73
2022-10-13T05:50:12.438Z,44.30
2022-10-13T05:52:40.018Z,44.44
2022-10-13T05:55:09.852Z,42.99
2022-10-13T05:57:39.986Z,42.96
2022-10-13T06:00:09.384Z,43.79
2022-10-13T06:02:42.502Z,43.18
2022-10-13T06:05:14.304Z,43.22
2022-10-13T06:07:42.095Z,42.89
2022-10-13T06:10:09.779Z,43.21
2022-10-13T06:12:37.120Z,43.39
2022-10-13T06:15:05.034Z,43.37
2022-10-13T06:17:32.293Z,43.34
2022-10-13T06:20:00.750Z,43.26
2022-10-13T06:22:27.839Z,43.64
2022-10-13T06:24:55.058Z,43.77
2022-10-13T06:27:22.139Z,43.61
2022-10-13T06:29:49.246Z,43.56
2022-10-13T06:32:16.393Z,43.90
2022-10-13T06:34:43.505Z,43.74
2022-10-13T06:37:11.942Z,44.07
2022-10-13T06:39:39.098Z,43.74
2022-10-13T06:42:06.334Z,44.01
2022-10-13T06:44:33.515Z,44.02
2022-10-13T06:47:00.634Z,44.10
2022-10-13T06:49:27.719Z,44.14
2022-10-13T06:51:54.812Z,43.92
2022-10-13T06:54:23.319Z,43.97
2022-10-13T06:56:50.819Z,44.10
2022-10-13T06:59:17.977Z,44.07
2022-10-13T07:01:45.086Z,43.97
2022-10-13T07:04:12.581Z,43.79
2022-10-13T07:06:39.692Z,44.06
2022-10-13T07:09:08.030Z,43.98
2022-10-13T07:11:36.559Z,44.15
2022-10-13T07:14:03.683Z,44.00
2022-10-13T07:16:31.049Z,43.84
2022-10-13T07:18:58.140Z,43.87
2022-10-13T07:21:25.905Z,43.87
2022-10-13T07:23:53.020Z,44.00
2022-10-13T07:26:20.265Z,44.05
2022-10-13T07:28:48.815Z,43.92
2022-10-13T07:31:18.300Z,43.95
2022-10-13T07:33:48.312Z,43.94
2022-10-13T07:36:15.440Z,44.10
2022-10-13T07:38:42.555Z,43.97
2022-10-13T07:41:11.123Z,43.81
2022-10-13T07:43:38.621Z,43.93
2022-10-13T07:46:08.187Z,43.71
2022-10-13T07:48:35.935Z,43.96
2022-10-13T07:51:04.602Z,43.96
2022-10-13T07:53:31.773Z,43.93
2022-10-13T07:56:00.294Z,43.93
2022-10-13T07:58:28.012Z,43.70
2022-10-13T08:00:59.427Z,43.65
2022-10-13T08:03:28.977Z,43.91
2022-10-13T08:05:59.023Z,43.83
2022-10-13T08:08:26.345Z,43.81
2022-10-13T08:13:25.949Z,43.58
2022-10-13T08:15:53.082Z,43.83
2022-10-13T08:18:20.218Z,43.71
2022-10-13T08:20:48.673Z,43.89
2022-10-13T08:23:15.811Z,43.82
2022-10-13T08:25:44.225Z,43.99
2022-10-13T08:28:17.191Z,44.12
2022-10-13T08:30:44.549Z,43.71
2022-10-13T08:33:12.164Z,43.73
2022-10-13T08:35:39.699Z,43.74
2022-10-13T08:38:08.542Z,43.92
2022-10-13T08:40:37.035Z,43.81
2022-10-13T08:43:06.888Z,43.85
2022-10-13T08:45:41.301Z,44.12
2022-10-13T08:48:14.087Z,44.29
2022-10-13T08:50:44.041Z,44.35
2022-10-13T08:53:18.955Z,44.24
2022-10-13T08:55:50.822Z,43.91
2022-10-13T08:58:24.514Z,43.86
2022-10-13T09:01:00.642Z,43.91
2022-10-13T09:03:29.687Z,44.00
2022-10-13T09:06:06.872Z,43.84
2022-10-13T09:08:40.642Z,43.79
2022-10-13T09:11:10.712Z,44.16
2022-10-13T09:13:38.431Z,44.02
2022-10-13T09:16:06.312Z,44.03
2022-10-13T09:18:34.253Z,44.16
2022-10-13T09:21:25.416Z,44.05
2022-10-13T09:24:06.324Z,44.14
2022-10-13T09:26:37.890Z,44.03
2022-10-13T09:29:09.727Z,44.02
2022-10-13T09:31:37.468Z,43.99
2022-10-13T09:34:14.967Z,44.09
2022-10-13T09:36:57.420Z,44.12
2022-10-13T09:39:26.581Z,43.85
2022-10-13T09:42:18.864Z,45.44
2022-10-13T09:44:47.096Z,44.79
2022-10-13T09:47:20.746Z,44.63
2022-10-13T09:50:04.818Z,44.69
2022-10-13T09:52:34.988Z,44.58
2022-10-13T09:55:31.315Z,44.26
2022-10-13T09:58:06.048Z,44.49
2022-10-13T10:00:33.576Z,44.40
2022-10-13T10:03:05.451Z,44.21
2022-10-13T10:05:42.358Z,44.08
2022-10-13T10:08:14.515Z,44.06
2022-10-13T10:10:41.975Z,44.22
2022-10-13T10:13:12.431Z,44.25
2022-10-13T10:15:51.256Z,44.76
2022-10-13T10:18:23.116Z,44.88
2022-10-13T10:21:00.637Z,44.87
2022-10-13T10:23:42.621Z,44.91
2022-10-13T10:26:20.720Z,45.10
2022-10-13T10:29:04.882Z,45.04
2022-10-13T10:31:55.197Z,44.87
2022-10-13T10:34:35.123Z,45.03
2022-10-13T10:37:15.087Z,44.73
2022-10-13T10:39:47.947Z,44.72
2022-10-13T10:42:42.132Z,44.77
2022-10-13T10:45:17.807Z,44.72
2022-10-13T10:47:47.615Z,44.70
2022-10-13T10:50:17.568Z,44.56
2022-10-13T10:52:53.529Z,44.76
2022-10-13T10:55:27.289Z,44.55
2022-10-13T10:58:04.508Z,44.47
2022-10-13T11:00:37.522Z,44.43
2022-10-13T11:03:15.786Z,44.64
2022-10-13T11:06:20.869Z,44.61
2022-10-13T11:08:49.167Z,44.76
2022-10-13T11:11:38.469Z,44.83
2022-10-13T11:14:25.653Z,44.94
2022-10-13T11:17:17.639Z,44.71
2022-10-13T11:19:45.763Z,44.85
2022-10-13T11:22:15.416Z,45.16
2022-10-13T11:24:51.232Z,44.92
2022-10-13T11:27:27.717Z,44.92
2022-10-13T11:29:56.959Z,45.08
2022-10-13T11:32:45.568Z,44.86
2022-10-13T11:35:21.762Z,44.64
2022-10-13T11:38:07.817Z,45.17
2022-10-13T11:40:44.514Z,44.74
2022-10-13T11:43:28.380Z,44.65
2022-10-13T11:46:14.809Z,44.85
2022-10-13T11:49:10.391Z,44.73
2022-10-13T11:52:01.004Z,45.03
2022-10-13T11:54:34.231Z,44.82
2022-10-13T11:57:01.391Z,44.80
2022-10-13T11:59:31.083Z,45.04
2022-10-13T12:02:06.406Z,45.17
2022-10-13T12:04:34.880Z,44.89
2022-10-13T12:07:03.953Z,45.06
2022-10-13T12:09:32.731Z,45.15
2022-10-13T12:12:03.044Z,45.11
2022-10-13T12:14:35.648Z,45.15
2022-10-13T12:17:03.133Z,44.95
2022-10-13T12:19:31.948Z,44.95
2022-10-13T12:22:01.725Z,44.98
2022-10-13T12:24:30.642Z,44.97
2022-10-13T12:26:58.637Z,44.83
2022-10-13T12:29:27.468Z,44.74
2022-10-13T12:31:55.455Z,44.71
2022-10-13T12:34:25.254Z,44.58
2022-10-13T12:36:55.974Z,44.74
2022-10-13T12:39:25.625Z,44.82
2022-10-13T12:41:53.625Z,44.67
2022-10-13T12:44:22.824Z,44.79
2022-10-13T12:46:51.668Z,44.88
2022-10-13T12:49:21.904Z,44.89
2022-10-13T12:51:50.762Z,44.76
2022-10-13T12:54:26.674Z,44.90
2022-10-13T12:56:57.397Z,44.99
2022-10-13T12:59:26.514Z,45.12
2022-10-13T13:01:56.893Z,45.05
2022-10-13T13:04:47.697Z,44.93
2022-10-13T13:07:30.290Z,44.75
2022-10-13T13:10:19.334Z,46.23
2022-10-13T13:12:47.737Z,46.19
2022-10-13T13:15:28.064Z,49.81
2022-10-13T13:18:15.543Z,46.77
2022-10-13T13:20:44.073Z,45.19
2022-10-13T13:23:11.156Z,44.33
2022-10-13T13:25:38.250Z,44.09
2022-10-13T13:28:12.173Z,43.42
2022-10-13T13:30:39.300Z,43.34
2022-10-13T13:33:06.806Z,50.01
2022-10-13T13:35:34.345Z,46.91
2022-10-13T13:38:04.378Z,44.37
2022-10-13T13:40:31.485Z,44.29
2022-10-13T13:42:58.753Z,44.13
2022-10-13T13:45:25.838Z,43.85
2022-10-13T13:47:54.950Z,44.03
2022-10-13T13:50:26.848Z,43.93
2022-10-13T13:52:54.248Z,43.89
2022-10-13T13:55:22.685Z,43.64
2022-10-13T13:57:49.803Z,43.92
2022-10-13T14:00:17.926Z,44.08
2022-10-13T14:02:45.532Z,43.80
2022-10-13T14:05:13.300Z,43.77
2022-10-13T14:07:40.944Z,43.92
2022-10-13T14:10:10.423Z,43.98
2022-10-13T14:12:39.139Z,44.00
2022-10-13T14:15:07.386Z,43.75
2022-10-13T14:17:34.484Z,43.64
2022-10-13T14:20:01.686Z,43.81
2022-10-13T14:22:28.865Z,43.65
2022-10-13T14:24:55.980Z,43.62
2022-10-13T14:27:23.120Z,43.76
2022-10-13T14:29:51.552Z,43.74
2022-10-13T14:32:18.907Z,44.08
2022-10-13T14:34:46.310Z,44.08
2022-10-13T14:37:13.431Z,44.00
2022-10-13T14:39:40.528Z,44.04
2022-10-13T14:42:07.641Z,43.94
2022-10-13T14:44:34.749Z,43.93
2022-10-13T14:47:03.240Z,43.78
2022-10-13T14:49:30.522Z,43.66
2022-10-13T14:51:57.619Z,44.00
2022-10-13T14:54:25.680Z,43.81
2022-10-13T14:56:53.348Z,44.09
2022-10-13T14:59:20.466Z,43.96
2022-10-13T15:01:49.004Z,43.85
2022-10-13T15:04:17.462Z,44.02
2022-10-13T15:06:44.599Z,43.75
2022-10-13T15:09:11.713Z,43.84
2022-10-13T15:11:38.948Z,43.97
2022-10-13T15:14:06.073Z,43.97
2022-10-13T15:16:33.362Z,43.95
2022-10-13T15:19:01.465Z,44.10
2022-10-13T15:21:30.176Z,43.85
2022-10-13T15:23:57.534Z,44.00
2022-10-13T15:26:24.702Z,44.21
2022-10-13T15:28:53.213Z,44.19
2022-10-13T15:31:22.207Z,44.17
2022-10-13T15:33:51.261Z,44.22
2022-10-13T15:36:19.131Z,44.08
2022-10-13T15:38:47.562Z,43.86
2022-10-13T15:41:14.727Z,43.82
2022-10-13T15:43:41.926Z,43.93
2022-10-13T15:46:12.462Z,44.04
2022-10-13T15:48:39.921Z,43.98
2022-10-13T15:51:13.170Z,43.90
2022-10-13T15:53:40.440Z,43.86
2022-10-13T15:56:09.242Z,44.11
2022-10-13T15:58:36.442Z,44.15
2022-10-13T16:01:07.286Z,44.00
2022-10-13T16:03:34.469Z,44.05
2022-10-13T16:06:04.233Z,43.94
2022-10-13T16:08:31.418Z,43.90
2022-10-13T16:10:58.509Z,43.91
2022-10-13T16:13:27.019Z,44.04
2022-10-13T16:15:57.501Z,43.86
2022-10-13T16:18:28.948Z,44.09
2022-10-13T16:20:56.281Z,44.24
2022-10-13T16:23:23.684Z,44.16
2022-10-13T16:25:50.868Z,44.02
2022-10-13T16:28:18.021Z,44.07
2022-10-13T16:30:46.549Z,44.22
2022-10-13T16:33:13.651Z,43.86
2022-10-13T16:35:40.740Z,43.89
2022-10-13T16:38:07.862Z,43.93
2022-10-13T16:40:37.226Z,44.13
2022-10-13T16:43:04.468Z,44.12
2022-10-13T16:45:55.117Z,44.11
2022-10-13T16:48:20.096Z,44.13
2022-10-13T16:50:47.247Z,43.98
2022-10-13T16:53:14.363Z,43.77
2022-10-13T16:55:42.104Z,43.89
2022-10-13T16:58:09.753Z,44.00
2022-10-13T17:00:37.594Z,43.72
2022-10-13T17:03:05.307Z,44.06
2022-10-13T17:05:34.348Z,44.08
2022-10-13T17:08:01.451Z,44.13
2022-10-13T17:10:28.677Z,44.16
2022-10-13T17:12:55.782Z,43.97
2022-10-13T17:15:22.874Z,44.27
2022-10-13T17:17:49.978Z,44.32
2022-10-13T17:20:17.230Z,44.19
2022-10-13T17:22:45.677Z,43.85
2022-10-13T17:25:12.797Z,44.53
2022-10-13T17:27:39.912Z,44.19
2022-10-13T17:30:08.102Z,44.86
2022-10-13T17:32:37.051Z,44.41
2022-10-13T17:35:04.605Z,44.13
2022-10-13T17:37:31.804Z,44.60
2022-10-13T17:40:00.245Z,44.62
2022-10-13T17:42:29.017Z,44.62
2022-10-13T17:44:56.475Z,44.34
2022-10-13T17:47:23.722Z,44.18
2022-10-13T17:49:51.029Z,44.44
2022-10-13T17:52:18.201Z,44.31
2022-10-13T17:54:45.293Z,44.29
2022-10-13T17:57:13.778Z,44.23
2022-10-13T17:59:40.876Z,44.15
2022-10-13T18:02:09.131Z,44.19
2022-10-13T18:04:36.369Z,44.06
2022-10-13T18:07:03.618Z,44.23
2022-10-13T18:09:30.716Z,44.25
2022-10-13T18:11:58.021Z,44.65
2022-10-13T18:14:26.484Z,44.50
2022-10-13T18:16:54.060Z,44.62
2022-10-13T18:19:21.518Z,44.51
2022-10-13T18:21:49.034Z,44.49
2022-10-13T18:24:16.287Z,44.62
2022-10-13T18:26:43.406Z,44.35
2022-10-13T18:29:12.065Z,44.42
2022-10-13T18:31:41.735Z,44.18
2022-10-13T18:34:12.961Z,44.17
2022-10-13T18:36:42.004Z,44.32
2022-10-13T18:39:12.923Z,44.26
2022-10-13T18:41:40.837Z,44.25
2022-10-13T18:44:08.753Z,44.40
2022-10-13T18:46:38.043Z,44.04
2022-10-13T18:49:10.453Z,44.08
2022-10-13T18:51:37.911Z,44.38
2022-10-13T18:54:06.157Z,44.33
2022-10-13T18:56:34.797Z,44.22
2022-10-13T18:59:02.067Z,44.23
2022-10-13T19:01:31.515Z,44.31
2022-10-13T19:03:59.637Z,44.28
2022-10-13T19:06:29.109Z,44.33
2022-10-13T19:08:57.875Z,44.24
2022-10-13T19:11:25.035Z,44.34
2022-10-13T19:13:52.571Z,44.31
2022-10-13T19:16:22.289Z,44.41
2022-10-13T19:18:49.890Z,44.46
2022-10-13T19:21:17.580Z,44.36
2022-10-13T19:23:46.428Z,44.23
2022-10-13T19:26:15.577Z,44.43
2022-10-13T19:28:43.226Z,44.20
2022-10-13T19:31:11.478Z,44.44
2022-10-13T19:33:44.263Z,44.35
2022-10-13T19:36:20.937Z,44.35
2022-10-13T19:38:49.701Z,44.13
2022-10-13T19:41:16.943Z,44.31
2022-10-13T19:43:44.258Z,44.27
2022-10-13T19:46:11.417Z,44.20
2022-10-13T19:48:38.578Z,44.39
2022-10-13T19:51:07.310Z,44.58
2022-10-13T19:53:35.399Z,44.37
2022-10-13T19:56:04.951Z,44.37
2022-10-13T19:58:32.293Z,44.75
2022-10-13T20:01:03.185Z,44.50
2022-10-13T20:03:30.368Z,44.48
2022-10-13T20:05:57.751Z,44.54
2022-10-13T20:08:24.827Z,44.32
2022-10-13T20:10:51.955Z,44.50
2022-10-13T20:13:20.434Z,44.40
2022-10-13T20:15:47.619Z,44.67
2022-10-13T20:18:14.723Z,44.18
2022-10-13T20:20:42.061Z,44.37
2022-10-13T20:23:09.471Z,44.61
2022-10-13T20:25:37.020Z,44.36
2022-10-13T20:28:04.337Z,44.43
2022-10-13T20:30:33.355Z,44.32
2022-10-13T20:33:00.722Z,44.50
2022-10-13T20:35:27.977Z,44.52
2022-10-13T20:37:55.210Z,44.51
2022-10-13T20:40:22.341Z,44.54
2022-10-13T20:42:50.309Z,44.35
2022-10-13T20:45:17.683Z,44.59
2022-10-13T20:47:46.152Z,44.72
2022-10-13T20:50:13.262Z,44.74
2022-10-13T20:52:40.356Z,44.84
2022-10-13T20:55:08.172Z,44.64
2022-10-13T20:57:35.386Z,44.63
2022-10-13T21:00:03.106Z,44.51
2022-10-13T21:02:30.204Z,44.84
2022-10-13T21:04:58.663Z,44.99
2022-10-13T21:07:25.756Z,44.78
2022-10-13T21:09:53.973Z,44.67
2022-10-13T21:12:21.269Z,44.65
2022-10-13T21:14:48.381Z,44.67
2022-10-13T21:17:15.481Z,44.82
2022-10-13T21:19:42.742Z,44.70
2022-10-13T21:22:11.229Z,44.59
2022-10-13T21:24:38.335Z,44.63
2022-10-13T21:27:05.455Z,44.77
2022-10-13T21:29:32.544Z,44.71
2022-10-13T21:31:59.634Z,44.85
2022-10-13T21:34:26.749Z,44.75
2022-10-13T21:36:53.828Z,44.80
2022-10-13T21:39:22.254Z,44.88
2022-10-13T21:41:49.383Z,44.96
2022-10-13T21:44:16.488Z,44.87
2022-10-13T21:46:43.615Z,45.12
2022-10-13T21:49:10.728Z,45.06
2022-10-13T21:51:39.887Z,45.11
2022-10-13T21:54:09.797Z,45.17
2022-10-13T21:56:39.486Z,45.13
2022-10-13T21:59:07.861Z,44.96
2022-10-13T22:01:35.005Z,45.02
2022-10-13T22:04:03.162Z,45.10
2022-10-13T22:06:31.675Z,44.86
2022-10-13T22:09:00.272Z,45.11
2022-10-13T22:11:30.971Z,45.15
2022-10-13T22:13:59.841Z,45.06
2022-10-13T22:16:29.267Z,44.82
2022-10-13T22:18:57.842Z,44.88
2022-10-13T22:21:27.705Z,45.06
2022-10-13T22:23:57.046Z,44.96
2022-10-13T22:26:24.210Z,45.07
2022-10-13T22:28:51.411Z,45.25
2022-10-13T22:31:20.006Z,44.96
2022-10-13T22:33:47.151Z,45.05
2022-10-13T22:36:16.604Z,45.08
2022-10-13T22:38:44.223Z,45.20
2022-10-13T22:41:12.054Z,45.37
2022-10-13T22:43:39.142Z,46.44
2022-10-13T22:46:06.462Z,45.33
2022-10-13T22:48:40.360Z,45.26
2022-10-13T22:51:08.749Z,45.13
2022-10-13T22:53:35.935Z,45.11
2022-10-13T22:56:06.037Z,44.87
2022-10-13T22:58:33.533Z,44.93
2022-10-13T23:01:05.387Z,45.15
2022-10-13T23:03:32.592Z,45.19
2022-10-13T23:06:01.082Z,45.00
2022-10-13T23:08:28.226Z,44.99
2022-10-13T23:10:55.316Z,45.04
2022-10-13T23:13:22.556Z,45.23
2022-10-13T23:15:49.679Z,45.28
2022-10-13T23:18:16.899Z,45.38
2022-10-13T23:20:44.402Z,45.26
2022-10-13T23:23:13.117Z,45.26
2022-10-13T23:25:40.224Z,45.25
2022-10-13T23:28:07.345Z,45.18
2022-10-13T23:30:34.492Z,45.37
2022-10-13T23:33:01.577Z,45.37
2022-10-13T23:35:28.710Z,45.41
2022-10-13T23:37:55.864Z,45.30
2022-10-13T23:40:24.314Z,45.30
2022-10-13T23:42:51.402Z,45.09
2022-10-13T23:45:18.621Z,45.40
2022-10-13T23:47:45.695Z,45.48
2022-10-13T23:50:12.786Z,45.06
2022-10-13T23:52:39.919Z,45.31
2022-10-13T23:55:07.679Z,45.21
2022-10-13T23:57:36.220Z,45.12
